Aeroporto :
LOGIN :

Iscrizione | Disclaimer

   EN    FR    IT 

 










Sommario :    VFR   VFR Marginale   IFR   IFR Intensivo   IFR Molto Intensivo
Visibilità : 
Base nubi : 
>= 8 km
>= 3000ft
5 / 8 km
1000 / 3000 ft
1500m / 5 km
500 / 1000 ft
800 / 1500m
200 / 500 ft
< 800m
< 200 ft
Simboli :   Temporali  Nebbia  Neve Forte  Precipitazioni Forti  Vento > 20 kt
SIGMETs :   Varie  Temporali  Ghiacco  Turbolenza  Onda orograficha  Ceneri Vulcaniche







- Altitudine del aeroporto : 14 ft
- Codice IATA : BRE


EDDW - Bremen Neuenland

ULTIMO METAR :
  • 221420Z 25013KT 9999 SCT040 BKN130 15/08 Q1016 TEMPO 25020G30KT

METARs OBSOLETI :
  • 221350Z 24014KT 9999 BKN040 BKN130 15/08 Q1016 TEMPO 25020G30KT
  • 221320Z 24014KT 9999 BKN040 BKN150 15/08 Q1016 TEMPO 25020G30KT
  • 221250Z 25015KT 9999 SCT040 BKN150 16/08 Q1016 TEMPO 25020G30KT
  • 221220Z 26019KT 9999 BKN036 BKN150 16/08 Q1016 TEMPO 25020G30KT
  • 221150Z 24018KT 9999 BKN036 16/07 Q1016 TEMPO 25020G30KT
  • 221120Z 24018KT 9999 BKN036 16/08 Q1016 TEMPO 25020G30KT

TAF TAF EDDW
Valido dal 22 a 12 ore il 23 a 12 ore UTC


221100Z 2212/2312 25015G25KT 9999 SCT030
TEMPO 2212/2216 27020G35KT SHRA BKN020CB
BECMG 2215/2218 24009KT
BECMG 2222/2301 20004KT
PROB30
TEMPO 2307/2312 4500 -RA BKN012
Nessun NOTAM noto per questo aeroporto.



MetMap, La meteo Aeronautica in un colpo d'occhio ! - Copyright ORBIFLY Dicembre 2007 - Disclaimer

ORBIFLY MET'MAP TEAM :

Programmazione e sviluppo : Alexandra Zaïnal
Concezione e sviluppo : Baudouin d'Aumeries
Co-Programmazione e sviluppo : Marc-Olivier Méhu
Supporto tecnico e logistico : Manuel Goepfert
Aiuto per la traduzione : Arnaldo La Scala

Contatto : metmap@orbifly.com




FONTI E CREDITI :

   NOAA